createdAt,value
2022-10-15T09:03:47.851Z,1940.00
2022-10-15T09:04:47.758Z,1852.00
2022-10-15T09:05:47.679Z,1896.00
2022-10-15T09:06:47.608Z,1944.00
2022-10-15T09:07:50.841Z,1748.00
2022-10-15T09:08:47.457Z,2160.00
2022-10-15T09:09:47.630Z,2408.00
2022-10-15T09:10:47.305Z,2584.00
2022-10-15T09:11:47.229Z,3020.00
2022-10-15T09:12:47.154Z,2828.00
2022-10-15T09:13:47.078Z,2772.00
2022-10-15T09:14:47.003Z,2972.00
2022-10-15T09:15:46.926Z,3252.00
2022-10-15T09:16:46.851Z,3960.00
2022-10-15T09:17:46.776Z,4024.00
2022-10-15T09:18:46.698Z,3320.00
2022-10-15T09:19:46.641Z,3528.00
2022-10-15T09:20:46.551Z,3148.00
2022-10-15T09:21:46.507Z,2892.00
2022-10-15T09:22:46.434Z,2848.00
2022-10-15T09:23:46.321Z,2732.00
2022-10-15T09:24:46.247Z,3564.00
2022-10-15T09:25:46.172Z,3164.00
2022-10-15T09:26:46.098Z,3080.00
2022-10-15T09:27:46.019Z,3752.00
2022-10-15T09:28:46.026Z,4772.00
2022-10-15T09:29:45.869Z,5496.00
2022-10-15T09:30:45.794Z,5076.00
2022-10-15T09:31:45.742Z,3936.00
2022-10-15T09:32:47.534Z,5364.00
2022-10-15T09:33:45.565Z,4400.00
2022-10-15T09:34:45.490Z,4156.00
2022-10-15T09:35:45.431Z,4236.00
2022-10-15T09:36:45.340Z,4852.00
2022-10-15T09:37:45.266Z,4836.00
2022-10-15T09:38:45.190Z,4544.00
2022-10-15T09:39:45.114Z,5028.00
2022-10-15T09:40:45.042Z,4088.00
2022-10-15T09:41:44.963Z,4940.00
2022-10-15T09:42:44.892Z,4392.00
2022-10-15T09:43:44.812Z,3880.00
2022-10-15T09:44:44.738Z,3028.00
2022-10-15T09:45:44.663Z,2496.00
2022-10-15T09:46:44.586Z,2080.00
2022-10-15T09:47:44.510Z,2824.00
2022-10-15T09:48:44.437Z,2864.00
2022-10-15T09:49:44.362Z,2748.00
2022-10-15T09:50:44.285Z,2832.00
2022-10-15T09:51:44.233Z,3028.00
2022-10-15T09:52:44.137Z,3096.00
2022-10-15T09:53:44.062Z,2976.00
2022-10-15T09:54:43.988Z,2296.00
2022-10-15T09:55:43.910Z,1880.00
2022-10-15T09:56:43.836Z,1836.00
2022-10-15T09:57:43.762Z,2084.00
2022-10-15T09:58:43.684Z,1664.00
2022-10-15T09:59:43.611Z,2144.00
2022-10-15T10:00:43.539Z,2308.00
2022-10-15T10:01:43.538Z,2332.00
2022-10-15T10:02:43.468Z,2596.00
2022-10-15T10:03:43.307Z,3264.00
2022-10-15T10:04:43.234Z,3672.00
2022-10-15T10:05:43.410Z,4816.00
2022-10-15T10:06:43.081Z,4804.00
2022-10-15T10:07:43.024Z,4760.00
2022-10-15T10:08:42.993Z,4168.00
2022-10-15T10:09:42.855Z,3864.00
2022-10-15T10:10:45.972Z,3732.00
2022-10-15T10:11:42.704Z,3552.00
2022-10-15T10:12:42.628Z,3428.00
2022-10-15T10:13:42.554Z,3988.00
2022-10-15T10:14:42.477Z,4444.00
2022-10-15T10:15:42.401Z,4768.00
2022-10-15T10:16:42.328Z,4416.00
2022-10-15T10:17:42.277Z,4084.00
2022-10-15T10:18:42.187Z,3828.00
2022-10-15T10:19:42.102Z,3648.00
2022-10-15T10:20:42.028Z,3336.00
2022-10-15T10:21:41.952Z,3508.00
2022-10-15T10:22:41.875Z,3912.00
2022-10-15T10:23:41.822Z,4072.00
2022-10-15T10:24:41.727Z,4028.00
2022-10-15T10:25:41.651Z,4272.00
2022-10-15T10:26:41.579Z,3804.00
2022-10-15T10:27:41.500Z,3400.00
2022-10-15T10:28:44.173Z,3448.00
2022-10-15T10:29:41.412Z,3584.00
2022-10-15T10:30:41.275Z,3844.00
2022-10-15T10:31:41.200Z,3796.00
2022-10-15T10:32:41.127Z,3740.00
